Delhi, LA

2:33 PM CST on February 01, 2015 (GMT -0600)
Bastrop | Change Station
CLOSE
Current Station
Airport
Location: Bastrop,
Elevation: 167 ft
Nearby Weather Stations

Elev 167 ft 32.76 °N, 91.88 °W | Updated 18 minutes ago

Overcast
Overcast
69 °F
Feels Like 69 °F
N
16
Wind Variable Wind from SSW
Gusts 24 mph

Today
High -- | Low -- °F
--% Chance of Precip.
Yesterday
High -- | Low -- °F
Precip. -- in
7:00 AM 5:39 PM
Waxing Gibbous, 96% visible
Pressure 29.78 in
Visibility 10.0 miles
Clouds Scattered Clouds 2400 ft
Scattered Clouds 3200 ft
Mostly Cloudy 4200 ft
Dew Point 59 °F
Humidity 70%
Rainfall 0.15 in
Snow Depth Not available.
UV 2 out of 12
Pollen 7.20 out of 12
Air Quality Not available.
Flu Activity Not available.
METAR KBQP 012015Z AUTO 21014G21KT 190V250 10SM VCTS SCT024 SCT032 BKN042 21/15 A2978 RMK AO2 LTG DSNT W THRU N T02060150

More Conditions Fewer Conditions

Pressure 29.78 in
Visibility 10.0 miles
Clouds Scattered Clouds 2400 ft
Scattered Clouds 3200 ft
Mostly Cloudy 4200 ft
Dew Point 59 °F
Humidity 70%
Rainfall 0.15 in
Snow Depth Not available.
UV 2 out of 12
Pollen 7.20 out of 12
Air Quality Not available.
Flu Activity Not available.
METAR KBQP 012015Z AUTO 21014G21KT 190V250 10SM VCTS SCT024 SCT032 BKN042 21/15 A2978 RMK AO2 LTG DSNT W THRU N T02060150

More Conditions Fewer Conditions

10-Day Weather Forecast

Almanac

Astronomy

Feb. 01, 2015 Rise Set
Actual Time
Civil Twilight
Nautical Twilight
Astronomical Twilight
Moon
Length of Visible Light
Length of Day
Tomorrow will be .
, % of the Moon is Illuminated

Today's Extremes

State Highs State Lows

Community

WunderPhotos

Upload Photos

1,792,511 photos uploaded!

WunderBlogs® & News

Nearby

Air Quality

  Air Quality AQ Index Pollutant
Not available.

Snow Depth

Station Depth Elevation

Earthquake Activity

City Distance Mag. Time & Date
Minimum magnitude displayed is 2.5.

Coastal Water Temperatures

Place Temperature

Nearby Weather Stations